sensor_id;sensor_type;location;lat;lon;timestamp;P1;durP1;ratioP1;P2;durP2;ratioP2
23539;SDS011;11947;50.810;4.394;2023-02-01T00:02:06;83.18;;;28.45;;
23539;SDS011;11947;50.810;4.394;2023-02-01T00:04:31;67.95;;;25.30;;
23539;SDS011;11947;50.810;4.394;2023-02-01T00:06:57;82.47;;;27.98;;
23539;SDS011;11947;50.810;4.394;2023-02-01T00:09:23;73.00;;;26.83;;
23539;SDS011;11947;50.810;4.394;2023-02-01T00:11:48;77.85;;;26.40;;
23539;SDS011;11947;50.810;4.394;2023-02-01T00:14:14;80.47;;;27.15;;
23539;SDS011;11947;50.810;4.394;2023-02-01T00:16:41;67.60;;;26.55;;
23539;SDS011;11947;50.810;4.394;2023-02-01T00:19:09;76.63;;;26.48;;
23539;SDS011;11947;50.810;4.394;2023-02-01T00:21:36;63.83;;;25.40;;
23539;SDS011;11947;50.810;4.394;2023-02-01T00:24:02;83.30;;;26.05;;
23539;SDS011;11947;50.810;4.394;2023-02-01T00:26:33;70.72;;;25.40;;
23539;SDS011;11947;50.810;4.394;2023-02-01T00:29:01;68.28;;;24.75;;
23539;SDS011;11947;50.810;4.394;2023-02-01T00:31:28;70.93;;;24.17;;
23539;SDS011;11947;50.810;4.394;2023-02-01T00:33:54;70.60;;;24.35;;
23539;SDS011;11947;50.810;4.394;2023-02-01T00:36:19;75.05;;;23.42;;
23539;SDS011;11947;50.810;4.394;2023-02-01T00:38:45;67.88;;;22.85;;
23539;SDS011;11947;50.810;4.394;2023-02-01T00:41:12;64.32;;;22.05;;
23539;SDS011;11947;50.810;4.394;2023-02-01T00:43:39;63.67;;;22.73;;
23539;SDS011;11947;50.810;4.394;2023-02-01T00:46:05;66.65;;;22.65;;
23539;SDS011;11947;50.810;4.394;2023-02-01T00:48:30;60.40;;;21.23;;
23539;SDS011;11947;50.810;4.394;2023-02-01T00:51:00;71.95;;;21.13;;
23539;SDS011;11947;50.810;4.394;2023-02-01T00:53:26;62.25;;;20.17;;
23539;SDS011;11947;50.810;4.394;2023-02-01T00:55:52;56.40;;;19.45;;
23539;SDS011;11947;50.810;4.394;2023-02-01T00:58:18;61.17;;;19.33;;
23539;SDS011;11947;50.810;4.394;2023-02-01T01:00:43;59.50;;;17.88;;
23539;SDS011;11947;50.810;4.394;2023-02-01T01:03:09;59.03;;;17.50;;
23539;SDS011;11947;50.810;4.394;2023-02-01T01:05:44;59.65;;;19.48;;
23539;SDS011;11947;50.810;4.394;2023-02-01T01:08:10;55.58;;;17.73;;
23539;SDS011;11947;50.810;4.394;2023-02-01T01:10:36;54.88;;;16.02;;
23539;SDS011;11947;50.810;4.394;2023-02-01T01:13:01;41.97;;;14.93;;
23539;SDS011;11947;50.810;4.394;2023-02-01T01:15:27;53.55;;;14.73;;
23539;SDS011;11947;50.810;4.394;2023-02-01T01:17:52;55.35;;;13.98;;
23539;SDS011;11947;50.810;4.394;2023-02-01T01:20:18;47.85;;;13.00;;
23539;SDS011;11947;50.810;4.394;2023-02-01T01:22:46;43.22;;;13.10;;
23539;SDS011;11947;50.810;4.394;2023-02-01T01:25:12;44.83;;;12.45;;
23539;SDS011;11947;50.810;4.394;2023-02-01T01:27:38;48.33;;;11.43;;
23539;SDS011;11947;50.810;4.394;2023-02-01T01:30:04;46.65;;;11.88;;
23539;SDS011;11947;50.810;4.394;2023-02-01T01:32:30;39.97;;;10.18;;
23539;SDS011;11947;50.810;4.394;2023-02-01T01:34:56;45.00;;;10.48;;
23539;SDS011;11947;50.810;4.394;2023-02-01T01:37:22;46.80;;;10.88;;
23539;SDS011;11947;50.810;4.394;2023-02-01T01:39:47;41.60;;;9.75;;
23539;SDS011;11947;50.810;4.394;2023-02-01T01:42:13;51.72;;;9.35;;
23539;SDS011;11947;50.810;4.394;2023-02-01T01:47:26;45.00;;;8.63;;
23539;SDS011;11947;50.810;4.394;2023-02-01T01:49:54;49.63;;;7.65;;
23539;SDS011;11947;50.810;4.394;2023-02-01T01:52:20;36.35;;;6.78;;
23539;SDS011;11947;50.810;4.394;2023-02-01T01:54:47;39.33;;;7.47;;
23539;SDS011;11947;50.810;4.394;2023-02-01T01:57:17;39.05;;;6.53;;
23539;SDS011;11947;50.810;4.394;2023-02-01T02:00:09;39.42;;;5.88;;
23539;SDS011;11947;50.810;4.394;2023-02-01T02:02:36;31.85;;;6.18;;
23539;SDS011;11947;50.810;4.394;2023-02-01T02:05:03;35.65;;;6.13;;
23539;SDS011;11947;50.810;4.394;2023-02-01T02:07:30;34.00;;;5.85;;
23539;SDS011;11947;50.810;4.394;2023-02-01T02:10:00;39.47;;;6.75;;
23539;SDS011;11947;50.810;4.394;2023-02-01T02:12:30;31.92;;;5.35;;
23539;SDS011;11947;50.810;4.394;2023-02-01T02:14:56;31.65;;;5.68;;
23539;SDS011;11947;50.810;4.394;2023-02-01T02:28:21;31.08;;;5.07;;
23539;SDS011;11947;50.810;4.394;2023-02-01T02:42:01;31.30;;;6.53;;
23539;SDS011;11947;50.810;4.394;2023-02-01T02:45:08;27.73;;;6.10;;
23539;SDS011;11947;50.810;4.394;2023-02-01T02:48:11;29.30;;;5.22;;
23539;SDS011;11947;50.810;4.394;2023-02-01T02:54:15;30.60;;;5.20;;
23539;SDS011;11947;50.810;4.394;2023-02-01T02:57:07;28.60;;;5.03;;
23539;SDS011;11947;50.810;4.394;2023-02-01T02:59:54;27.23;;;5.68;;
23539;SDS011;11947;50.810;4.394;2023-02-01T03:02:40;32.17;;;4.93;;
23539;SDS011;11947;50.810;4.394;2023-02-01T03:05:25;35.92;;;6.00;;
23539;SDS011;11947;50.810;4.394;2023-02-01T03:08:30;38.83;;;5.95;;
23539;SDS011;11947;50.810;4.394;2023-02-01T03:11:01;32.20;;;4.93;;
23539;SDS011;11947;50.810;4.394;2023-02-01T03:13:50;30.90;;;5.38;;
23539;SDS011;11947;50.810;4.394;2023-02-01T03:16:20;28.90;;;4.03;;
23539;SDS011;11947;50.810;4.394;2023-02-01T03:21:48;26.85;;;4.93;;
23539;SDS011;11947;50.810;4.394;2023-02-01T03:24:23;30.35;;;4.43;;
23539;SDS011;11947;50.810;4.394;2023-02-01T03:27:00;33.67;;;5.03;;
23539;SDS011;11947;50.810;4.394;2023-02-01T03:29:44;32.47;;;4.55;;
23539;SDS011;11947;50.810;4.394;2023-02-01T03:32:14;30.48;;;4.82;;
23539;SDS011;11947;50.810;4.394;2023-02-01T03:34:40;32.85;;;4.20;;
23539;SDS011;11947;50.810;4.394;2023-02-01T03:37:09;28.98;;;4.93;;
23539;SDS011;11947;50.810;4.394;2023-02-01T03:39:53;27.40;;;4.55;;
23539;SDS011;11947;50.810;4.394;2023-02-01T03:42:34;34.03;;;5.18;;
23539;SDS011;11947;50.810;4.394;2023-02-01T03:45:06;28.08;;;4.72;;
23539;SDS011;11947;50.810;4.394;2023-02-01T03:47:42;31.20;;;4.47;;
23539;SDS011;11947;50.810;4.394;2023-02-01T03:50:13;32.75;;;4.97;;
23539;SDS011;11947;50.810;4.394;2023-02-01T03:52:47;31.55;;;4.88;;
23539;SDS011;11947;50.810;4.394;2023-02-01T03:55:18;28.02;;;4.63;;
23539;SDS011;11947;50.810;4.394;2023-02-01T03:57:48;34.15;;;5.53;;
23539;SDS011;11947;50.810;4.394;2023-02-01T04:00:23;28.77;;;4.80;;
23539;SDS011;11947;50.810;4.394;2023-02-01T04:02:50;30.83;;;4.85;;
23539;SDS011;11947;50.810;4.394;2023-02-01T04:05:16;29.27;;;5.05;;
23539;SDS011;11947;50.810;4.394;2023-02-01T04:07:42;26.83;;;5.00;;
23539;SDS011;11947;50.810;4.394;2023-02-01T04:10:08;29.58;;;5.13;;
23539;SDS011;11947;50.810;4.394;2023-02-01T04:12:35;31.42;;;5.53;;
23539;SDS011;11947;50.810;4.394;2023-02-01T04:15:00;32.65;;;5.20;;
23539;SDS011;11947;50.810;4.394;2023-02-01T04:17:26;36.75;;;4.70;;
23539;SDS011;11947;50.810;4.394;2023-02-01T04:19:51;31.95;;;4.93;;
23539;SDS011;11947;50.810;4.394;2023-02-01T04:22:17;34.40;;;5.30;;
23539;SDS011;11947;50.810;4.394;2023-02-01T04:24:42;20.42;;;4.13;;
23539;SDS011;11947;50.810;4.394;2023-02-01T04:27:08;27.77;;;4.95;;
23539;SDS011;11947;50.810;4.394;2023-02-01T04:29:34;44.83;;;5.75;;
23539;SDS011;11947;50.810;4.394;2023-02-01T04:31:59;34.80;;;4.30;;
23539;SDS011;11947;50.810;4.394;2023-02-01T04:34:25;36.22;;;5.68;;
23539;SDS011;11947;50.810;4.394;2023-02-01T04:36:51;34.53;;;5.15;;
23539;SDS011;11947;50.810;4.394;2023-02-01T04:39:16;39.40;;;5.55;;
23539;SDS011;11947;50.810;4.394;2023-02-01T04:41:42;23.35;;;4.60;;
23539;SDS011;11947;50.810;4.394;2023-02-01T04:44:15;43.85;;;5.53;;
23539;SDS011;11947;50.810;4.394;2023-02-01T04:46:42;34.22;;;5.43;;
23539;SDS011;11947;50.810;4.394;2023-02-01T04:49:11;31.95;;;4.93;;
23539;SDS011;11947;50.810;4.394;2023-02-01T04:51:37;41.67;;;5.40;;
23539;SDS011;11947;50.810;4.394;2023-02-01T04:54:04;26.60;;;4.60;;
23539;SDS011;11947;50.810;4.394;2023-02-01T04:56:30;31.67;;;4.82;;
23539;SDS011;11947;50.810;4.394;2023-02-01T04:58:55;35.95;;;5.00;;
23539;SDS011;11947;50.810;4.394;2023-02-01T05:01:21;29.00;;;4.40;;
23539;SDS011;11947;50.810;4.394;2023-02-01T05:03:47;35.38;;;5.55;;
23539;SDS011;11947;50.810;4.394;2023-02-01T05:06:13;48.20;;;5.35;;
23539;SDS011;11947;50.810;4.394;2023-02-01T05:08:39;36.33;;;5.38;;
23539;SDS011;11947;50.810;4.394;2023-02-01T05:11:05;33.92;;;5.30;;
23539;SDS011;11947;50.810;4.394;2023-02-01T05:13:31;29.67;;;4.18;;
23539;SDS011;11947;50.810;4.394;2023-02-01T05:16:15;28.50;;;4.07;;
23539;SDS011;11947;50.810;4.394;2023-02-01T05:18:41;36.53;;;4.93;;
23539;SDS011;11947;50.810;4.394;2023-02-01T05:21:06;34.30;;;4.32;;
23539;SDS011;11947;50.810;4.394;2023-02-01T05:23:32;31.25;;;4.55;;
23539;SDS011;11947;50.810;4.394;2023-02-01T05:26:18;40.00;;;4.82;;
23539;SDS011;11947;50.810;4.394;2023-02-01T05:28:43;27.95;;;4.20;;
23539;SDS011;11947;50.810;4.394;2023-02-01T05:31:10;35.65;;;4.63;;
23539;SDS011;11947;50.810;4.394;2023-02-01T05:33:36;27.10;;;4.38;;
23539;SDS011;11947;50.810;4.394;2023-02-01T05:36:02;29.33;;;4.72;;
23539;SDS011;11947;50.810;4.394;2023-02-01T05:38:28;33.70;;;5.10;;
23539;SDS011;11947;50.810;4.394;2023-02-01T05:40:54;35.40;;;4.60;;
23539;SDS011;11947;50.810;4.394;2023-02-01T05:43:20;42.53;;;4.55;;
23539;SDS011;11947;50.810;4.394;2023-02-01T05:45:46;27.63;;;4.38;;
23539;SDS011;11947;50.810;4.394;2023-02-01T05:48:12;31.05;;;4.68;;
23539;SDS011;11947;50.810;4.394;2023-02-01T05:50:39;36.50;;;4.68;;
23539;SDS011;11947;50.810;4.394;2023-02-01T05:53:04;34.85;;;4.63;;
23539;SDS011;11947;50.810;4.394;2023-02-01T05:55:30;35.55;;;3.97;;
23539;SDS011;11947;50.810;4.394;2023-02-01T05:57:56;33.33;;;4.97;;
23539;SDS011;11947;50.810;4.394;2023-02-01T06:00:22;32.70;;;5.22;;
23539;SDS011;11947;50.810;4.394;2023-02-01T06:02:48;35.17;;;4.82;;
23539;SDS011;11947;50.810;4.394;2023-02-01T06:05:13;29.00;;;4.13;;
23539;SDS011;11947;50.810;4.394;2023-02-01T06:07:39;31.67;;;4.20;;
23539;SDS011;11947;50.810;4.394;2023-02-01T06:10:05;32.85;;;4.20;;
23539;SDS011;11947;50.810;4.394;2023-02-01T06:12:31;41.75;;;4.60;;
23539;SDS011;11947;50.810;4.394;2023-02-01T06:14:57;41.95;;;4.95;;
23539;SDS011;11947;50.810;4.394;2023-02-01T06:17:23;29.75;;;4.85;;
23539;SDS011;11947;50.810;4.394;2023-02-01T06:19:49;31.40;;;4.72;;
23539;SDS011;11947;50.810;4.394;2023-02-01T06:22:14;25.10;;;4.55;;
23539;SDS011;11947;50.810;4.394;2023-02-01T06:24:40;36.20;;;4.15;;
23539;SDS011;11947;50.810;4.394;2023-02-01T06:27:06;29.92;;;5.30;;
23539;SDS011;11947;50.810;4.394;2023-02-01T06:29:32;41.30;;;5.15;;
23539;SDS011;11947;50.810;4.394;2023-02-01T06:31:58;36.90;;;5.07;;
23539;SDS011;11947;50.810;4.394;2023-02-01T06:34:24;29.63;;;4.60;;
23539;SDS011;11947;50.810;4.394;2023-02-01T06:36:50;30.08;;;4.43;;
23539;SDS011;11947;50.810;4.394;2023-02-01T06:39:15;35.95;;;4.82;;
23539;SDS011;11947;50.810;4.394;2023-02-01T06:41:42;33.15;;;4.80;;
23539;SDS011;11947;50.810;4.394;2023-02-01T06:44:10;36.13;;;5.20;;
23539;SDS011;11947;50.810;4.394;2023-02-01T06:46:36;37.35;;;5.25;;
23539;SDS011;11947;50.810;4.394;2023-02-01T06:49:01;38.03;;;4.88;;
23539;SDS011;11947;50.810;4.394;2023-02-01T06:51:27;37.25;;;5.10;;
23539;SDS011;11947;50.810;4.394;2023-02-01T06:53:54;36.70;;;5.40;;
23539;SDS011;11947;50.810;4.394;2023-02-01T06:56:20;35.28;;;4.50;;
23539;SDS011;11947;50.810;4.394;2023-02-01T06:58:46;33.78;;;4.75;;
23539;SDS011;11947;50.810;4.394;2023-02-01T07:01:12;43.78;;;5.30;;
23539;SDS011;11947;50.810;4.394;2023-02-01T07:03:38;42.78;;;5.28;;
23539;SDS011;11947;50.810;4.394;2023-02-01T07:06:04;34.17;;;4.70;;
23539;SDS011;11947;50.810;4.394;2023-02-01T07:08:31;38.72;;;5.57;;
23539;SDS011;11947;50.810;4.394;2023-02-01T07:13:31;36.15;;;5.20;;
23539;SDS011;11947;50.810;4.394;2023-02-01T07:15:58;36.92;;;5.70;;
23539;SDS011;11947;50.810;4.394;2023-02-01T07:18:28;36.97;;;5.32;;
23539;SDS011;11947;50.810;4.394;2023-02-01T07:20:54;35.15;;;5.50;;
23539;SDS011;11947;50.810;4.394;2023-02-01T07:23:21;38.88;;;4.70;;
23539;SDS011;11947;50.810;4.394;2023-02-01T07:25:47;36.70;;;5.10;;
23539;SDS011;11947;50.810;4.394;2023-02-01T07:28:12;42.13;;;5.60;;
23539;SDS011;11947;50.810;4.394;2023-02-01T07:30:38;42.97;;;5.53;;
23539;SDS011;11947;50.810;4.394;2023-02-01T07:33:04;27.27;;;4.78;;
23539;SDS011;11947;50.810;4.394;2023-02-01T07:35:31;30.55;;;5.18;;
23539;SDS011;11947;50.810;4.394;2023-02-01T07:37:57;34.60;;;4.70;;
23539;SDS011;11947;50.810;4.394;2023-02-01T07:40:23;36.13;;;5.15;;
23539;SDS011;11947;50.810;4.394;2023-02-01T07:42:53;26.73;;;4.43;;
23539;SDS011;11947;50.810;4.394;2023-02-01T07:45:20;43.20;;;6.20;;
23539;SDS011;11947;50.810;4.394;2023-02-01T07:47:46;33.03;;;5.25;;
23539;SDS011;11947;50.810;4.394;2023-02-01T07:50:12;33.03;;;5.55;;
23539;SDS011;11947;50.810;4.394;2023-02-01T07:52:37;38.13;;;5.05;;
23539;SDS011;11947;50.810;4.394;2023-02-01T07:55:03;35.83;;;4.75;;
23539;SDS011;11947;50.810;4.394;2023-02-01T07:57:29;33.55;;;5.22;;
23539;SDS011;11947;50.810;4.394;2023-02-01T07:59:54;43.10;;;5.60;;
23539;SDS011;11947;50.810;4.394;2023-02-01T08:02:38;37.80;;;5.45;;
23539;SDS011;11947;50.810;4.394;2023-02-01T08:05:04;46.45;;;5.40;;
23539;SDS011;11947;50.810;4.394;2023-02-01T08:07:33;30.42;;;5.57;;
23539;SDS011;11947;50.810;4.394;2023-02-01T08:09:58;40.63;;;5.68;;
23539;SDS011;11947;50.810;4.394;2023-02-01T08:12:25;29.00;;;4.97;;
23539;SDS011;11947;50.810;4.394;2023-02-01T08:14:51;34.63;;;6.25;;
23539;SDS011;11947;50.810;4.394;2023-02-01T08:17:18;40.25;;;6.93;;
23539;SDS011;11947;50.810;4.394;2023-02-01T08:19:44;42.60;;;7.65;;
23539;SDS011;11947;50.810;4.394;2023-02-01T08:22:09;42.47;;;7.78;;
23539;SDS011;11947;50.810;4.394;2023-02-01T08:24:35;38.10;;;6.60;;
23539;SDS011;11947;50.810;4.394;2023-02-01T08:27:02;39.53;;;5.82;;
23539;SDS011;11947;50.810;4.394;2023-02-01T08:29:28;45.33;;;6.40;;
23539;SDS011;11947;50.810;4.394;2023-02-01T08:31:54;43.97;;;6.30;;
23539;SDS011;11947;50.810;4.394;2023-02-01T08:34:19;30.15;;;5.47;;
23539;SDS011;11947;50.810;4.394;2023-02-01T08:36:46;32.85;;;5.80;;
23539;SDS011;11947;50.810;4.394;2023-02-01T08:39:12;39.25;;;6.55;;
23539;SDS011;11947;50.810;4.394;2023-02-01T08:41:38;33.85;;;5.25;;
23539;SDS011;11947;50.810;4.394;2023-02-01T08:44:03;39.65;;;5.55;;
23539;SDS011;11947;50.810;4.394;2023-02-01T08:46:29;37.15;;;5.63;;
23539;SDS011;11947;50.810;4.394;2023-02-01T08:48:55;39.83;;;5.65;;
23539;SDS011;11947;50.810;4.394;2023-02-01T08:51:21;41.72;;;6.93;;
23539;SDS011;11947;50.810;4.394;2023-02-01T08:53:47;36.67;;;5.82;;
23539;SDS011;11947;50.810;4.394;2023-02-01T08:56:14;38.00;;;5.20;;
23539;SDS011;11947;50.810;4.394;2023-02-01T08:58:40;38.83;;;5.20;;
23539;SDS011;11947;50.810;4.394;2023-02-01T09:01:07;38.22;;;5.57;;
23539;SDS011;11947;50.810;4.394;2023-02-01T09:03:34;32.13;;;6.50;;
23539;SDS011;11947;50.810;4.394;2023-02-01T09:06:01;43.33;;;6.28;;
23539;SDS011;11947;50.810;4.394;2023-02-01T09:08:32;40.13;;;6.43;;
23539;SDS011;11947;50.810;4.394;2023-02-01T09:10:59;36.38;;;6.20;;
23539;SDS011;11947;50.810;4.394;2023-02-01T09:13:26;33.22;;;6.13;;
23539;SDS011;11947;50.810;4.394;2023-02-01T09:15:52;39.53;;;7.00;;
23539;SDS011;11947;50.810;4.394;2023-02-01T09:18:18;34.15;;;5.85;;
23539;SDS011;11947;50.810;4.394;2023-02-01T09:20:44;39.97;;;6.63;;
23539;SDS011;11947;50.810;4.394;2023-02-01T09:23:10;35.67;;;6.80;;
23539;SDS011;11947;50.810;4.394;2023-02-01T09:25:39;41.50;;;5.70;;
23539;SDS011;11947;50.810;4.394;2023-02-01T09:28:05;36.20;;;6.60;;
23539;SDS011;11947;50.810;4.394;2023-02-01T09:30:34;29.80;;;6.18;;
23539;SDS011;11947;50.810;4.394;2023-02-01T09:33:01;38.53;;;7.72;;
23539;SDS011;11947;50.810;4.394;2023-02-01T09:35:27;33.70;;;5.57;;
23539;SDS011;11947;50.810;4.394;2023-02-01T09:37:53;30.38;;;6.20;;
23539;SDS011;11947;50.810;4.394;2023-02-01T09:40:19;31.63;;;5.57;;
23539;SDS011;11947;50.810;4.394;2023-02-01T09:45:41;33.83;;;6.22;;
23539;SDS011;11947;50.810;4.394;2023-02-01T09:48:11;30.35;;;5.63;;
23539;SDS011;11947;50.810;4.394;2023-02-01T09:50:47;36.42;;;6.47;;
23539;SDS011;11947;50.810;4.394;2023-02-01T09:53:21;34.17;;;5.32;;
23539;SDS011;11947;50.810;4.394;2023-02-01T09:56:02;29.45;;;5.72;;
23539;SDS011;11947;50.810;4.394;2023-02-01T09:59:00;43.22;;;5.78;;
23539;SDS011;11947;50.810;4.394;2023-02-01T10:01:44;40.35;;;6.45;;
23539;SDS011;11947;50.810;4.394;2023-02-01T10:04:10;33.05;;;5.20;;
23539;SDS011;11947;50.810;4.394;2023-02-01T10:09:27;27.75;;;5.40;;
23539;SDS011;11947;50.810;4.394;2023-02-01T10:17:31;32.40;;;5.75;;
23539;SDS011;11947;50.810;4.394;2023-02-01T10:20:23;29.05;;;5.75;;
23539;SDS011;11947;50.810;4.394;2023-02-01T10:25:37;34.90;;;5.95;;
23539;SDS011;11947;50.810;4.394;2023-02-01T10:28:26;23.23;;;5.28;;
23539;SDS011;11947;50.810;4.394;2023-02-01T10:30:56;28.15;;;4.72;;
23539;SDS011;11947;50.810;4.394;2023-02-01T10:33:30;27.40;;;4.78;;
23539;SDS011;11947;50.810;4.394;2023-02-01T10:36:20;31.90;;;5.00;;
23539;SDS011;11947;50.810;4.394;2023-02-01T10:38:51;33.13;;;4.45;;
23539;SDS011;11947;50.810;4.394;2023-02-01T10:41:18;26.67;;;4.35;;
23539;SDS011;11947;50.810;4.394;2023-02-01T10:43:48;33.42;;;4.38;;
23539;SDS011;11947;50.810;4.394;2023-02-01T10:46:20;30.45;;;4.93;;
23539;SDS011;11947;50.810;4.394;2023-02-01T10:48:48;26.02;;;4.40;;
23539;SDS011;11947;50.810;4.394;2023-02-01T10:51:16;23.58;;;3.65;;
23539;SDS011;11947;50.810;4.394;2023-02-01T10:53:55;23.98;;;3.80;;
23539;SDS011;11947;50.810;4.394;2023-02-01T10:56:26;29.73;;;4.15;;
23539;SDS011;11947;50.810;4.394;2023-02-01T10:58:59;24.35;;;4.13;;
23539;SDS011;11947;50.810;4.394;2023-02-01T11:01:34;22.75;;;3.70;;
23539;SDS011;11947;50.810;4.394;2023-02-01T11:04:12;23.45;;;3.90;;
23539;SDS011;11947;50.810;4.394;2023-02-01T11:06:51;23.95;;;4.03;;
23539;SDS011;11947;50.810;4.394;2023-02-01T11:09:20;19.63;;;3.20;;
23539;SDS011;11947;50.810;4.394;2023-02-01T11:14:26;20.30;;;3.10;;
23539;SDS011;11947;50.810;4.394;2023-02-01T11:16:59;24.10;;;4.75;;
23539;SDS011;11947;50.810;4.394;2023-02-01T11:19:26;22.70;;;3.70;;
23539;SDS011;11947;50.810;4.394;2023-02-01T11:21:54;22.20;;;4.03;;
23539;SDS011;11947;50.810;4.394;2023-02-01T11:24:29;22.50;;;3.63;;
23539;SDS011;11947;50.810;4.394;2023-02-01T11:27:01;19.05;;;2.88;;
23539;SDS011;11947;50.810;4.394;2023-02-01T11:29:35;17.88;;;3.45;;
23539;SDS011;11947;50.810;4.394;2023-02-01T11:32:07;22.15;;;3.35;;
23539;SDS011;11947;50.810;4.394;2023-02-01T11:34:38;23.05;;;3.10;;
23539;SDS011;11947;50.810;4.394;2023-02-01T11:37:19;21.55;;;3.58;;
23539;SDS011;11947;50.810;4.394;2023-02-01T11:40:02;18.67;;;3.42;;
23539;SDS011;11947;50.810;4.394;2023-02-01T11:43:08;17.08;;;3.15;;
23539;SDS011;11947;50.810;4.394;2023-02-01T11:45:57;19.48;;;3.22;;
23539;SDS011;11947;50.810;4.394;2023-02-01T11:48:28;23.02;;;3.13;;
23539;SDS011;11947;50.810;4.394;2023-02-01T11:56:59;25.02;;;3.17;;
23539;SDS011;11947;50.810;4.394;2023-02-01T12:02:23;23.08;;;2.90;;
23539;SDS011;11947;50.810;4.394;2023-02-01T12:05:18;20.40;;;3.47;;
23539;SDS011;11947;50.810;4.394;2023-02-01T12:10:30;20.77;;;2.60;;
23539;SDS011;11947;50.810;4.394;2023-02-01T12:22:01;23.33;;;2.70;;
23539;SDS011;11947;50.810;4.394;2023-02-01T12:24:48;13.60;;;2.42;;
23539;SDS011;11947;50.810;4.394;2023-02-01T12:30:34;19.42;;;2.90;;
23539;SDS011;11947;50.810;4.394;2023-02-01T12:33:31;21.23;;;3.38;;
23539;SDS011;11947;50.810;4.394;2023-02-01T12:38:52;21.50;;;3.53;;
23539;SDS011;11947;50.810;4.394;2023-02-01T12:43:59;16.73;;;2.13;;
23539;SDS011;11947;50.810;4.394;2023-02-01T12:46:35;14.27;;;2.60;;
23539;SDS011;11947;50.810;4.394;2023-02-01T12:49:10;12.35;;;2.58;;
23539;SDS011;11947;50.810;4.394;2023-02-01T12:51:44;14.10;;;2.67;;
23539;SDS011;11947;50.810;4.394;2023-02-01T13:02:05;18.65;;;2.38;;
23539;SDS011;11947;50.810;4.394;2023-02-01T13:07:53;15.07;;;2.75;;
23539;SDS011;11947;50.810;4.394;2023-02-01T13:13:42;13.60;;;2.30;;
23539;SDS011;11947;50.810;4.394;2023-02-01T13:19:03;11.05;;;2.35;;
23539;SDS011;11947;50.810;4.394;2023-02-01T13:21:36;12.05;;;2.33;;
23539;SDS011;11947;50.810;4.394;2023-02-01T13:24:10;13.05;;;2.50;;
23539;SDS011;11947;50.810;4.394;2023-02-01T13:26:49;11.63;;;2.40;;
23539;SDS011;11947;50.810;4.394;2023-02-01T13:29:18;21.23;;;3.03;;
23539;SDS011;11947;50.810;4.394;2023-02-01T13:32:04;14.27;;;2.67;;
23539;SDS011;11947;50.810;4.394;2023-02-01T13:37:43;13.90;;;2.60;;
23539;SDS011;11947;50.810;4.394;2023-02-01T13:43:26;12.45;;;2.70;;
23539;SDS011;11947;50.810;4.394;2023-02-01T13:45:55;12.05;;;2.60;;
23539;SDS011;11947;50.810;4.394;2023-02-01T13:48:41;13.25;;;2.80;;
23539;SDS011;11947;50.810;4.394;2023-02-01T13:51:10;16.35;;;3.03;;
23539;SDS011;11947;50.810;4.394;2023-02-01T13:53:38;12.10;;;2.60;;
23539;SDS011;11947;50.810;4.394;2023-02-01T13:56:15;51.60;;;5.03;;
23539;SDS011;11947;50.810;4.394;2023-02-01T13:58:45;16.25;;;2.85;;
23539;SDS011;11947;50.810;4.394;2023-02-01T14:14:55;19.85;;;3.05;;
23539;SDS011;11947;50.810;4.394;2023-02-01T14:19:25;13.13;;;2.38;;
23539;SDS011;11947;50.810;4.394;2023-02-01T14:21:53;17.05;;;2.38;;
23539;SDS011;11947;50.810;4.394;2023-02-01T14:24:29;18.35;;;2.80;;
23539;SDS011;11947;50.810;4.394;2023-02-01T14:29:44;17.25;;;3.13;;
23539;SDS011;11947;50.810;4.394;2023-02-01T14:32:26;17.42;;;2.67;;
23539;SDS011;11947;50.810;4.394;2023-02-01T14:34:59;21.23;;;2.88;;
23539;SDS011;11947;50.810;4.394;2023-02-01T14:37:37;16.27;;;3.00;;
23539;SDS011;11947;50.810;4.394;2023-02-01T14:42:35;14.52;;;2.60;;
23539;SDS011;11947;50.810;4.394;2023-02-01T14:47:47;18.77;;;2.60;;
23539;SDS011;11947;50.810;4.394;2023-02-01T15:01:01;18.25;;;3.20;;
23539;SDS011;11947;50.810;4.394;2023-02-01T15:05:58;20.08;;;3.17;;
23539;SDS011;11947;50.810;4.394;2023-02-01T15:08:31;19.42;;;3.38;;
23539;SDS011;11947;50.810;4.394;2023-02-01T15:11:01;18.38;;;3.30;;
23539;SDS011;11947;50.810;4.394;2023-02-01T15:13:32;17.02;;;3.50;;
23539;SDS011;11947;50.810;4.394;2023-02-01T15:18:28;27.40;;;3.30;;
23539;SDS011;11947;50.810;4.394;2023-02-01T15:20:58;16.83;;;3.58;;
23539;SDS011;11947;50.810;4.394;2023-02-01T15:23:25;16.98;;;3.35;;
23539;SDS011;11947;50.810;4.394;2023-02-01T15:25:51;17.13;;;3.47;;
23539;SDS011;11947;50.810;4.394;2023-02-01T15:28:17;23.02;;;3.47;;
23539;SDS011;11947;50.810;4.394;2023-02-01T15:31:02;14.20;;;3.28;;
23539;SDS011;11947;50.810;4.394;2023-02-01T15:33:31;20.10;;;4.10;;
23539;SDS011;11947;50.810;4.394;2023-02-01T15:38:42;18.42;;;3.03;;
23539;SDS011;11947;50.810;4.394;2023-02-01T15:41:09;17.55;;;3.42;;
23539;SDS011;11947;50.810;4.394;2023-02-01T15:43:42;24.70;;;3.92;;
23539;SDS011;11947;50.810;4.394;2023-02-01T15:46:15;23.10;;;6.97;;
23539;SDS011;11947;50.810;4.394;2023-02-01T15:48:54;22.95;;;3.60;;
23539;SDS011;11947;50.810;4.394;2023-02-01T15:51:21;21.52;;;4.88;;
23539;SDS011;11947;50.810;4.394;2023-02-01T15:54:07;24.92;;;3.47;;
23539;SDS011;11947;50.810;4.394;2023-02-01T15:56:40;20.95;;;3.80;;
23539;SDS011;11947;50.810;4.394;2023-02-01T15:59:13;23.33;;;3.72;;
23539;SDS011;11947;50.810;4.394;2023-02-01T16:01:41;24.80;;;3.63;;
23539;SDS011;11947;50.810;4.394;2023-02-01T16:06:47;25.75;;;3.20;;
23539;SDS011;11947;50.810;4.394;2023-02-01T16:09:22;18.92;;;3.50;;
23539;SDS011;11947;50.810;4.394;2023-02-01T16:12:01;16.95;;;3.55;;
23539;SDS011;11947;50.810;4.394;2023-02-01T16:14:31;26.65;;;4.07;;
23539;SDS011;11947;50.810;4.394;2023-02-01T16:16:58;22.77;;;3.75;;
23539;SDS011;11947;50.810;4.394;2023-02-01T16:19:23;25.88;;;3.90;;
23539;SDS011;11947;50.810;4.394;2023-02-01T16:21:53;20.73;;;3.80;;
23539;SDS011;11947;50.810;4.394;2023-02-01T16:24:19;26.98;;;4.20;;
23539;SDS011;11947;50.810;4.394;2023-02-01T16:26:47;32.55;;;6.00;;
23539;SDS011;11947;50.810;4.394;2023-02-01T16:29:12;24.45;;;3.80;;
23539;SDS011;11947;50.810;4.394;2023-02-01T16:31:40;20.45;;;4.22;;
23539;SDS011;11947;50.810;4.394;2023-02-01T16:34:06;28.88;;;3.70;;
23539;SDS011;11947;50.810;4.394;2023-02-01T16:36:35;23.52;;;4.35;;
23539;SDS011;11947;50.810;4.394;2023-02-01T16:39:01;26.60;;;3.90;;
23539;SDS011;11947;50.810;4.394;2023-02-01T16:41:28;22.58;;;3.53;;
23539;SDS011;11947;50.810;4.394;2023-02-01T16:43:54;17.02;;;3.33;;
23539;SDS011;11947;50.810;4.394;2023-02-01T16:46:21;19.05;;;2.92;;
23539;SDS011;11947;50.810;4.394;2023-02-01T16:48:55;26.40;;;4.03;;
23539;SDS011;11947;50.810;4.394;2023-02-01T16:51:23;25.30;;;3.80;;
23539;SDS011;11947;50.810;4.394;2023-02-01T16:53:51;25.63;;;3.60;;
23539;SDS011;11947;50.810;4.394;2023-02-01T16:56:19;21.25;;;3.10;;
23539;SDS011;11947;50.810;4.394;2023-02-01T16:58:55;27.75;;;3.35;;
23539;SDS011;11947;50.810;4.394;2023-02-01T17:01:21;20.40;;;4.13;;
23539;SDS011;11947;50.810;4.394;2023-02-01T17:03:47;28.58;;;5.05;;
23539;SDS011;11947;50.810;4.394;2023-02-01T17:06:13;21.58;;;3.88;;
23539;SDS011;11947;50.810;4.394;2023-02-01T17:08:42;21.77;;;3.90;;
23539;SDS011;11947;50.810;4.394;2023-02-01T17:11:10;20.80;;;4.13;;
23539;SDS011;11947;50.810;4.394;2023-02-01T17:13:37;33.65;;;7.35;;
23539;SDS011;11947;50.810;4.394;2023-02-01T17:16:09;28.38;;;8.10;;
23539;SDS011;11947;50.810;4.394;2023-02-01T17:18:36;33.70;;;10.60;;